Time;durP1;ratioP1;P1;durP2;ratioP2;P2;SDS_P1;SDS_P2;PMS_P1;PMS_P2;Temp;Humidity;BMP_temperature;BMP_pressure;BME280_temperature;BME280_humidity;BME280_pressure;Samples;Min_cycle;Max_cycle;Signal;HPM_P1;HPM_P2
2023/08/20 00:02:01;;;;;;;;;0.00;0.00;;;;;-146.67;100.00;57155.34;5082813;28;8820;-76
2023/08/20 00:04:28;;;;;;;;;0.33;0.33;;;;;-146.67;100.00;57155.34;5084352;28;8820;-76
2023/08/20 00:06:53;;;;;;;;;0.00;0.00;;;;;-146.67;100.00;57155.34;5084484;28;9073;-76
2023/08/20 00:09:19;;;;;;;;;1.00;0.00;;;;;-146.67;100.00;57155.34;5083039;28;9264;-76
2023/08/20 00:11:44;;;;;;;;;4.67;0.33;;;;;-146.67;100.00;57155.34;5065668;28;8820;-76
2023/08/20 00:14:16;;;;;;;;;0.67;0.67;;;;;-146.67;100.00;57155.34;5084400;28;8785;-76
2023/08/20 00:16:43;;;;;;;;;1.00;1.00;;;;;-146.67;100.00;57155.34;5065860;28;8730;-76
2023/08/20 00:19:09;;;;;;;;;2.00;1.00;;;;;-146.67;100.00;57155.34;5064883;28;10143;-76
2023/08/20 00:21:35;;;;;;;;;0.67;0.00;;;;;-146.67;100.00;57155.34;5083277;28;9090;-76
2023/08/20 00:24:01;;;;;;;;;0.33;0.00;;;;;-146.67;100.00;57155.34;5066196;28;9302;-76
2023/08/20 00:26:26;;;;;;;;;0.00;0.00;;;;;-146.67;100.00;57155.34;5083917;28;9218;-75
2023/08/20 00:28:52;;;;;;;;;1.33;0.00;;;;;-146.67;100.00;57155.34;5083389;28;8801;-76
2023/08/20 00:31:17;;;;;;;;;1.67;0.67;;;;;-146.67;100.00;57155.34;5065927;28;8836;-76
2023/08/20 00:33:43;;;;;;;;;0.00;0.00;;;;;-146.67;100.00;57155.34;5083922;28;8807;-75
2023/08/20 00:36:08;;;;;;;;;0.67;0.67;;;;;-146.67;100.00;57155.34;5082488;28;8813;-76
2023/08/20 00:38:34;;;;;;;;;1.67;0.00;;;;;-146.67;100.00;57155.34;5083985;28;8785;-76
2023/08/20 00:40:59;;;;;;;;;2.67;1.00;;;;;-146.67;100.00;57155.34;5082323;28;8793;-76
2023/08/20 00:43:24;;;;;;;;;0.00;0.00;;;;;-146.67;100.00;57155.34;5083419;28;8880;-76
2023/08/20 00:45:50;;;;;;;;;2.50;1.00;;;;;-146.67;100.00;57155.34;5065448;28;8903;-76
2023/08/20 00:48:17;;;;;;;;;0.67;0.67;;;;;-146.67;100.00;57155.34;5065375;28;9912;-76
2023/08/20 00:50:42;;;;;;;;;0.67;0.67;;;;;-146.67;100.00;57155.34;5083174;28;8797;-76
2023/08/20 00:53:11;;;;;;;;;1.00;1.00;;;;;-146.67;100.00;57155.34;5065156;28;9321;-76
2023/08/20 00:55:37;;;;;;;;;0.67;0.67;;;;;-146.67;100.00;57155.34;5065487;28;8745;-76
2023/08/20 00:58:03;;;;;;;;;0.00;0.00;;;;;-146.67;100.00;57155.34;5082836;28;9516;-76
2023/08/20 01:00:29;;;;;;;;;1.33;0.33;;;;;-146.67;100.00;57155.34;5083447;28;8761;-76
2023/08/20 01:02:54;;;;;;;;;1.00;1.00;;;;;-146.67;100.00;57155.34;5083674;28;9190;-75
2023/08/20 01:05:20;;;;;;;;;1.33;1.33;;;;;-146.67;100.00;57155.34;5065378;28;8797;-76
2023/08/20 01:07:57;;;;;;;;;1.67;1.00;;;;;-146.67;100.00;57155.34;5065212;28;10011;-76
2023/08/20 01:11:01;;;;;;;;;2.33;1.00;;;;;-146.67;100.00;57155.34;5065099;28;10122;-76
2023/08/20 01:13:27;;;;;;;;;1.00;1.00;;;;;-146.67;100.00;57155.34;5040002;28;9341;-76
2023/08/20 01:15:52;;;;;;;;;1.67;1.33;;;;;-146.67;100.00;57155.34;5040706;28;9291;-76
2023/08/20 01:18:18;;;;;;;;;1.33;1.33;;;;;-146.67;100.00;57155.34;5040807;28;8972;-75
2023/08/20 01:20:55;;;;;;;;;0.00;0.00;;;;;-146.67;100.00;57155.34;5023643;28;8798;-75
2023/08/20 01:23:42;;;;;;;;;0.00;0.00;;;;;-146.67;100.00;57155.34;5040699;28;8792;-76
2023/08/20 01:26:20;;;;;;;;;0.33;0.33;;;;;-146.67;100.00;57155.34;5040500;28;9263;-76
2023/08/20 01:28:45;;;;;;;;;1.33;1.33;;;;;-146.67;100.00;57155.34;5039914;28;9322;-76
2023/08/20 01:31:12;;;;;;;;;1.67;0.67;;;;;-146.67;100.00;57155.34;5040209;28;9330;-75
2023/08/20 01:33:38;;;;;;;;;2.00;1.00;;;;;-146.67;100.00;57155.34;5040485;28;8715;-75
2023/08/20 01:36:09;;;;;;;;;0.00;0.00;;;;;-146.67;100.00;57155.34;5040428;28;9271;-75
2023/08/20 01:38:35;;;;;;;;;1.33;1.33;;;;;-146.67;100.00;57155.34;5040478;28;9431;-75
2023/08/20 01:41:00;;;;;;;;;0.67;0.67;;;;;-146.67;100.00;57155.34;5040109;28;9220;-76
2023/08/20 01:43:26;;;;;;;;;1.00;1.00;;;;;-146.67;100.00;57155.34;5022721;28;11552;-76
2023/08/20 01:45:51;;;;;;;;;2.00;0.67;;;;;-146.67;100.00;57155.34;5040156;28;9000;-76
2023/08/20 01:48:17;;;;;;;;;4.00;1.00;;;;;-146.67;100.00;57155.34;5075024;28;10020;-76
2023/08/20 01:50:42;;;;;;;;;1.00;0.33;;;;;-146.67;100.00;57155.34;5082460;28;8815;-76
2023/08/20 01:53:07;;;;;;;;;1.00;1.00;;;;;-146.67;100.00;57155.34;5072302;28;8937;-75
2023/08/20 01:55:33;;;;;;;;;1.00;1.00;;;;;-146.67;100.00;57155.34;5062567;28;8824;-75
2023/08/20 01:57:58;;;;;;;;;3.00;1.00;;;;;-146.67;100.00;57155.34;5043925;28;9928;-75
2023/08/20 02:00:24;;;;;;;;;2.00;2.00;;;;;-146.67;100.00;57155.34;5062543;28;8813;-75
2023/08/20 02:02:49;;;;;;;;;4.33;1.00;;;;;-146.67;100.00;57155.34;5044562;28;8803;-75
2023/08/20 02:05:14;;;;;;;;;2.00;0.00;;;;;-146.67;100.00;57155.34;5062501;28;8763;-76
2023/08/20 02:07:40;;;;;;;;;2.33;1.00;;;;;-146.67;100.00;57155.34;5062472;28;8914;-76
2023/08/20 02:10:06;;;;;;;;;2.00;0.33;;;;;-146.67;100.00;57155.34;5062427;28;8786;-75
2023/08/20 02:12:31;;;;;;;;;1.00;1.00;;;;;-146.67;100.00;57155.34;5062014;28;8783;-75
2023/08/20 02:14:56;;;;;;;;;2.00;2.00;;;;;-146.67;100.00;57155.34;5044331;28;8822;-75
2023/08/20 02:17:23;;;;;;;;;1.00;0.00;;;;;-146.67;100.00;57155.34;5062482;28;8837;-75
2023/08/20 02:19:48;;;;;;;;;2.00;1.00;;;;;-146.67;100.00;57155.34;5061625;28;8798;-76
2023/08/20 02:22:14;;;;;;;;;1.33;0.33;;;;;-146.67;100.00;57155.34;5062329;28;10102;-76
2023/08/20 02:24:39;;;;;;;;;3.00;0.67;;;;;-146.67;100.00;57155.34;5062613;28;8787;-76
2023/08/20 02:27:05;;;;;;;;;1.33;1.33;;;;;-146.67;100.00;57155.34;5043462;28;10102;-75
2023/08/20 02:29:30;;;;;;;;;1.00;1.00;;;;;-146.67;100.00;57155.34;5062401;28;8906;-76
2023/08/20 02:31:55;;;;;;;;;0.33;0.00;;;;;-146.67;100.00;57155.34;5062248;28;8775;-75
2023/08/20 02:34:21;;;;;;;;;1.00;1.00;;;;;-146.67;100.00;57155.34;5061975;28;8807;-76
2023/08/20 02:36:48;;;;;;;;;1.33;0.67;;;;;-146.67;100.00;57155.34;5043916;28;9946;-76
2023/08/20 02:39:13;;;;;;;;;2.67;0.67;;;;;-146.67;100.00;57155.34;5062095;28;8756;-76
2023/08/20 02:41:39;;;;;;;;;0.33;0.00;;;;;-146.67;100.00;57155.34;5062049;28;9462;-76
2023/08/20 02:44:04;;;;;;;;;2.00;1.00;;;;;-146.67;100.00;57155.34;5047432;28;8814;-76
2023/08/20 02:46:30;;;;;;;;;2.33;2.00;;;;;-146.67;100.00;57155.34;5065535;28;8842;-75
2023/08/20 02:48:55;;;;;;;;;1.00;1.00;;;;;-146.67;100.00;57155.34;5065599;28;8821;-76
2023/08/20 02:51:20;;;;;;;;;0.67;0.67;;;;;-146.67;100.00;57155.34;5064895;28;8763;-76
2023/08/20 02:53:46;;;;;;;;;1.67;1.67;;;;;-146.67;100.00;57155.34;5095797;28;8838;-76
2023/08/20 02:56:11;;;;;;;;;1.67;1.67;;;;;-146.67;100.00;57155.34;5067007;28;11022;-76
2023/08/20 02:58:37;;;;;;;;;2.00;1.25;;;;;-146.67;100.00;57155.34;5085363;28;8951;-76
2023/08/20 03:01:02;;;;;;;;;2.00;1.00;;;;;-146.67;100.00;57155.34;5067124;28;9602;-75
2023/08/20 03:03:28;;;;;;;;;2.67;1.00;;;;;-146.67;100.00;57155.34;5085481;28;8833;-75
2023/08/20 03:05:53;;;;;;;;;2.00;0.67;;;;;-146.67;100.00;57155.34;5085417;28;8810;-75
2023/08/20 03:08:19;;;;;;;;;1.25;1.00;;;;;-146.67;100.00;57155.34;5066840;28;8865;-75
2023/08/20 03:10:44;;;;;;;;;1.00;1.00;;;;;-146.67;100.00;57155.34;5085114;28;8807;-75
2023/08/20 03:13:10;;;;;;;;;3.00;2.00;;;;;-146.67;100.00;57155.34;5066767;28;8912;-75
2023/08/20 03:15:35;;;;;;;;;1.00;1.00;;;;;-146.67;100.00;57155.34;5067104;28;9921;-76
2023/08/20 03:18:01;;;;;;;;;1.25;1.25;;;;;-146.67;100.00;57155.34;5085208;28;8803;-76
2023/08/20 03:20:28;;;;;;;;;2.00;0.00;;;;;-146.67;100.00;57155.34;5084561;28;8857;-75
2023/08/20 03:22:53;;;;;;;;;2.50;0.50;;;;;-146.67;100.00;57155.34;5084835;28;8807;-75
2023/08/20 03:25:19;;;;;;;;;1.67;1.67;;;;;-146.67;100.00;57155.34;5100604;28;9856;-75
2023/08/20 03:27:44;;;;;;;;;1.25;1.25;;;;;-146.67;100.00;57155.34;5066587;28;8922;-75
2023/08/20 03:30:10;;;;;;;;;3.00;1.67;;;;;-146.67;100.00;57155.34;5085042;28;9573;-75
2023/08/20 03:32:35;;;;;;;;;1.00;0.00;;;;;-146.67;100.00;57155.34;5085074;28;8784;-75
2023/08/20 03:35:01;;;;;;;;;4.00;1.00;;;;;-146.67;100.00;57155.34;5100400;28;9855;-76
2023/08/20 03:37:27;;;;;;;;;1.00;1.00;;;;;-146.67;100.00;57155.34;5066403;28;8871;-75
2023/08/20 03:39:52;;;;;;;;;2.33;0.67;;;;;-146.67;100.00;57155.34;5085103;28;8811;-75
2023/08/20 03:42:17;;;;;;;;;2.33;1.67;;;;;-146.67;100.00;57155.34;5084525;28;8787;-75
2023/08/20 03:44:43;;;;;;;;;0.00;0.00;;;;;-146.67;100.00;57155.34;5085089;28;8843;-76
2023/08/20 03:47:08;;;;;;;;;1.33;0.67;;;;;-146.67;100.00;57155.34;5066628;28;8819;-75
2023/08/20 03:49:34;;;;;;;;;1.00;1.00;;;;;-146.67;100.00;57155.34;5084303;28;9367;-75
2023/08/20 03:52:01;;;;;;;;;2.25;1.25;;;;;-146.67;100.00;57155.34;5099754;28;8799;-76
2023/08/20 03:54:30;;;;;;;;;1.00;1.00;;;;;-146.67;100.00;57155.34;5084270;28;8774;-75
2023/08/20 03:56:55;;;;;;;;;0.00;0.00;;;;;-146.67;100.00;57155.34;5084426;28;9500;-76
2023/08/20 03:59:21;;;;;;;;;1.00;1.00;;;;;-146.67;100.00;57155.34;5084600;28;9519;-75
2023/08/20 04:01:46;;;;;;;;;1.00;1.00;;;;;-146.67;100.00;57155.34;5084293;28;8808;-76
2023/08/20 04:04:11;;;;;;;;;1.00;1.00;;;;;-146.67;100.00;57155.34;5084615;28;8799;-75
2023/08/20 04:06:37;;;;;;;;;2.00;1.00;;;;;-146.67;100.00;57155.34;5065667;28;9211;-76
2023/08/20 04:09:03;;;;;;;;;1.00;1.00;;;;;-146.67;100.00;57155.34;5066525;28;8889;-75
2023/08/20 04:11:28;;;;;;;;;1.50;1.50;;;;;-146.67;100.00;57155.34;5084007;28;8805;-76
2023/08/20 04:13:53;;;;;;;;;3.25;0.25;;;;;-146.67;100.00;57155.34;5084310;28;8785;-75
2023/08/20 04:16:19;;;;;;;;;3.25;1.00;;;;;-146.67;100.00;57155.34;5084373;28;8797;-76
2023/08/20 04:18:44;;;;;;;;;1.00;1.00;;;;;-146.67;100.00;57155.34;5084332;28;8789;-75
2023/08/20 04:21:09;;;;;;;;;1.50;0.00;;;;;-146.67;100.00;57155.34;5083341;28;8831;-76
2023/08/20 04:23:35;;;;;;;;;2.50;1.75;;;;;-146.67;100.00;57155.34;5084070;28;8785;-75
2023/08/20 04:26:00;;;;;;;;;1.25;1.25;;;;;-146.67;100.00;57155.34;5082870;28;8908;-75
2023/08/20 04:28:26;;;;;;;;;2.00;1.00;;;;;-146.67;100.00;57155.34;5083897;28;8995;-76
2023/08/20 04:30:55;;;;;;;;;1.50;0.50;;;;;-146.67;100.00;57155.34;5083968;28;8881;-75
2023/08/20 04:33:20;;;;;;;;;1.00;1.00;;;;;-146.67;100.00;57155.34;5084269;28;8757;-76
2023/08/20 04:35:48;;;;;;;;;1.00;1.00;;;;;-146.67;100.00;57155.34;5065452;28;9522;-76
2023/08/20 04:38:13;;;;;;;;;1.50;1.50;;;;;-146.67;100.00;57155.34;5065829;28;8781;-75
2023/08/20 04:40:38;;;;;;;;;1.00;0.00;;;;;-146.67;100.00;57155.34;5083847;28;9715;-75
2023/08/20 04:43:04;;;;;;;;;0.00;0.00;;;;;-146.67;100.00;57155.34;5083456;28;9541;-75
2023/08/20 04:45:29;;;;;;;;;1.50;1.50;;;;;-146.67;100.00;57155.34;5083919;28;8785;-75
2023/08/20 04:47:55;;;;;;;;;1.75;1.50;;;;;-146.67;100.00;57155.34;5083612;28;8953;-76
2023/08/20 04:50:20;;;;;;;;;0.67;0.67;;;;;-146.67;100.00;57155.34;5082965;28;8828;-75
2023/08/20 04:52:46;;;;;;;;;0.00;0.00;;;;;-146.67;100.00;57155.34;5065471;28;10117;-75
2023/08/20 04:55:11;;;;;;;;;2.75;1.50;;;;;-146.67;100.00;57155.34;5065511;28;8893;-75
2023/08/20 04:57:36;;;;;;;;;0.00;0.00;;;;;-146.67;100.00;57155.34;5082927;28;8785;-75
2023/08/20 05:00:02;;;;;;;;;1.00;1.00;;;;;-146.67;100.00;57155.34;5065651;28;8801;-75
2023/08/20 05:02:28;;;;;;;;;1.00;1.00;;;;;-146.67;100.00;57155.34;5065272;28;9949;-75
2023/08/20 05:04:53;;;;;;;;;1.25;1.25;;;;;-146.67;100.00;57155.34;5082502;28;8786;-75
2023/08/20 05:07:18;;;;;;;;;1.00;1.00;;;;;-146.67;100.00;57155.34;5083639;28;8813;-75
2023/08/20 05:09:44;;;;;;;;;3.75;0.00;;;;;-146.67;100.00;57155.34;5081789;28;8827;-76
2023/08/20 05:12:09;;;;;;;;;2.25;2.00;;;;;-146.67;100.00;57155.34;5082962;28;8813;-75
2023/08/20 05:14:35;;;;;;;;;2.00;1.00;;;;;-146.67;100.00;57155.34;5083570;28;8971;-75
2023/08/20 05:17:00;;;;;;;;;3.00;1.75;;;;;-146.67;100.00;57155.34;5083233;28;9103;-75
2023/08/20 05:19:26;;;;;;;;;1.00;1.00;;;;;-146.67;100.00;57155.34;5082759;28;8947;-75
2023/08/20 05:21:55;;;;;;;;;1.75;0.50;;;;;-146.67;100.00;57155.34;5064896;28;10270;-75
2023/08/20 05:24:21;;;;;;;;;3.00;1.50;;;;;-146.67;100.00;57155.34;5083143;28;8785;-75
2023/08/20 05:26:47;;;;;;;;;1.75;1.75;;;;;-146.67;100.00;57155.34;5064806;28;9525;-75
2023/08/20 05:29:12;;;;;;;;;4.50;2.75;;;;;-146.67;100.00;57155.34;5083043;28;9518;-75
2023/08/20 05:31:37;;;;;;;;;3.00;2.00;;;;;-146.67;100.00;57155.34;5082913;28;8785;-75
2023/08/20 05:34:03;;;;;;;;;2.00;2.00;;;;;-146.67;100.00;57155.34;5064649;28;8837;-75
2023/08/20 05:36:28;;;;;;;;;1.00;1.00;;;;;-146.67;100.00;57155.34;5083054;28;8816;-75
2023/08/20 05:38:53;;;;;;;;;4.25;2.00;;;;;-146.67;100.00;57155.34;5064748;28;8812;-75
2023/08/20 05:41:19;;;;;;;;;3.50;1.00;;;;;-146.67;100.00;57155.34;5081524;28;9862;-75
2023/08/20 05:43:44;;;;;;;;;4.75;2.25;;;;;-146.67;100.00;57155.34;5082494;28;8785;-75
2023/08/20 05:46:10;;;;;;;;;4.00;1.25;;;;;-146.67;100.00;57155.34;5083035;28;8785;-75
2023/08/20 05:48:35;;;;;;;;;1.75;1.75;;;;;-146.67;100.00;57155.34;5064461;28;8781;-75
2023/08/20 05:51:00;;;;;;;;;1.25;1.00;;;;;-146.67;100.00;57155.34;5080805;28;9934;-75
2023/08/20 05:53:26;;;;;;;;;1.00;1.00;;;;;-146.67;100.00;57155.34;5070280;28;8831;-76
2023/08/20 05:55:51;;;;;;;;;4.25;2.00;;;;;-146.67;100.00;57155.34;5044597;28;8811;-75
2023/08/20 05:58:16;;;;;;;;;4.00;2.00;;;;;-146.67;100.00;57155.34;5062330;28;8817;-75
2023/08/20 06:00:42;;;;;;;;;2.00;1.00;;;;;-146.67;100.00;57155.34;5062512;28;8795;-75
2023/08/20 06:03:07;;;;;;;;;1.50;1.00;;;;;-146.67;100.00;57155.34;5062299;28;8802;-75
2023/08/20 06:05:33;;;;;;;;;1.00;1.00;;;;;-146.67;100.00;57155.34;5044368;28;8803;-75
2023/08/20 06:07:59;;;;;;;;;2.00;2.00;;;;;-146.67;100.00;57155.34;5044391;28;8767;-75
2023/08/20 06:10:25;;;;;;;;;1.50;1.50;;;;;-146.67;100.00;57155.34;5062385;28;9631;-75
2023/08/20 06:12:50;;;;;;;;;1.25;1.25;;;;;-146.67;100.00;57155.34;5061943;28;8803;-75
2023/08/20 06:15:15;;;;;;;;;3.00;1.25;;;;;-146.67;100.00;57155.34;5062283;28;8799;-76
2023/08/20 06:17:41;;;;;;;;;1.25;1.25;;;;;-146.67;100.00;57155.34;5064334;28;8870;-75
2023/08/20 06:20:08;;;;;;;;;3.25;3.25;;;;;-146.67;100.00;57155.34;5065516;28;8876;-75
2023/08/20 06:22:34;;;;;;;;;4.50;2.00;;;;;-146.67;100.00;57155.34;5066042;28;8790;-75
2023/08/20 06:24:59;;;;;;;;;0.50;0.50;;;;;-146.67;100.00;57155.34;5065813;28;10267;-75
2023/08/20 06:27:24;;;;;;;;;2.75;1.75;;;;;-146.67;100.00;57155.34;5065365;28;8788;-76
2023/08/20 06:29:50;;;;;;;;;1.00;1.00;;;;;-146.67;100.00;57155.34;5047799;28;9902;-75
2023/08/20 06:32:15;;;;;;;;;2.00;1.00;;;;;-146.67;100.00;57155.34;5047414;28;9617;-75
2023/08/20 06:34:40;;;;;;;;;3.25;2.00;;;;;-146.67;100.00;57155.34;5047996;28;8807;-75
2023/08/20 06:37:06;;;;;;;;;2.00;2.00;;;;;-146.67;100.00;57155.34;5065703;28;8807;-75
2023/08/20 06:39:31;;;;;;;;;2.33;1.00;;;;;-146.67;100.00;57155.34;5081002;28;10304;-75
2023/08/20 06:41:57;;;;;;;;;1.67;1.67;;;;;-146.67;100.00;57155.34;5047315;28;9546;-76
2023/08/20 06:44:22;;;;;;;;;1.00;1.00;;;;;-146.67;100.00;57155.34;5047632;28;8818;-75
2023/08/20 06:46:47;;;;;;;;;1.67;1.67;;;;;-146.67;100.00;57155.34;5065281;28;8823;-75
2023/08/20 06:49:13;;;;;;;;;1.33;1.33;;;;;-146.67;100.00;57155.34;5047312;28;9942;-75
2023/08/20 06:51:38;;;;;;;;;2.67;0.67;;;;;-146.67;100.00;57155.34;5046840;28;8795;-75
2023/08/20 06:54:05;;;;;;;;;2.00;2.00;;;;;-146.67;100.00;57155.34;5098248;28;8911;-75
2023/08/20 06:56:31;;;;;;;;;2.33;2.00;;;;;-146.67;100.00;57155.34;5085773;28;8764;-75
2023/08/20 06:58:56;;;;;;;;;3.67;2.67;;;;;-146.67;100.00;57155.34;5100546;28;9892;-75
2023/08/20 07:01:22;;;;;;;;;3.00;2.00;;;;;-146.67;100.00;57155.34;5085025;28;8791;-75
2023/08/20 07:03:48;;;;;;;;;2.67;1.67;;;;;-146.67;100.00;57155.34;5067265;28;8831;-76
2023/08/20 07:06:16;;;;;;;;;2.67;1.33;;;;;-146.67;100.00;57155.34;5085122;28;8746;-75
2023/08/20 07:08:41;;;;;;;;;1.33;1.33;;;;;-146.67;100.00;57155.34;5085446;28;9303;-76
2023/08/20 07:11:07;;;;;;;;;3.00;1.00;;;;;-146.67;100.00;57155.34;5085112;28;9194;-76
2023/08/20 07:13:33;;;;;;;;;1.67;1.67;;;;;-146.67;100.00;57155.34;5085000;28;8791;-75
2023/08/20 07:15:58;;;;;;;;;2.00;2.00;;;;;-146.67;100.00;57155.34;5085284;28;8953;-76
2023/08/20 07:18:23;;;;;;;;;4.00;3.00;;;;;-146.67;100.00;57155.34;5100505;28;9845;-76
2023/08/20 07:20:51;;;;;;;;;5.00;3.67;;;;;-146.67;100.00;57155.34;5066464;28;8783;-76
2023/08/20 07:23:16;;;;;;;;;5.00;2.67;;;;;-146.67;100.00;57155.34;5100808;28;8740;-76
2023/08/20 07:25:42;;;;;;;;;3.00;2.00;;;;;-146.67;100.00;57155.34;5084942;28;9360;-75
2023/08/20 07:28:08;;;;;;;;;2.00;2.00;;;;;-146.67;100.00;57155.34;5084297;28;8853;-76
2023/08/20 07:30:35;;;;;;;;;3.67;1.33;;;;;-146.67;100.00;57155.34;5084778;28;8756;-76
2023/08/20 07:33:01;;;;;;;;;2.00;2.00;;;;;-146.67;100.00;57155.34;5085085;28;9111;-76
2023/08/20 07:35:27;;;;;;;;;3.00;2.00;;;;;-146.67;100.00;57155.34;5066744;28;9209;-76
2023/08/20 07:37:52;;;;;;;;;2.67;1.67;;;;;-146.67;100.00;57155.34;5085051;28;9437;-75
2023/08/20 07:40:18;;;;;;;;;1.33;1.33;;;;;-146.67;100.00;57155.34;5084678;28;8827;-76
2023/08/20 07:42:43;;;;;;;;;1.67;1.67;;;;;-146.67;100.00;57155.34;5084663;28;8814;-76
2023/08/20 07:45:09;;;;;;;;;2.67;2.67;;;;;-146.67;100.00;57155.34;5066442;28;8775;-75
2023/08/20 07:47:38;;;;;;;;;3.33;3.33;;;;;-146.67;100.00;57155.34;5084258;28;8941;-76
2023/08/20 07:50:05;;;;;;;;;4.00;3.00;;;;;-146.67;100.00;57155.34;5066249;28;8821;-76
2023/08/20 07:52:34;;;;;;;;;2.00;2.00;;;;;-146.67;100.00;57155.34;5066242;28;9381;-76
2023/08/20 07:55:00;;;;;;;;;3.00;3.00;;;;;-146.67;100.00;57155.34;5084321;28;9316;-76
2023/08/20 07:57:25;;;;;;;;;4.00;2.00;;;;;-146.67;100.00;57155.34;5084077;28;9503;-76
2023/08/20 07:59:51;;;;;;;;;3.00;3.00;;;;;-146.67;100.00;57155.34;5084271;28;8848;-76
2023/08/20 08:02:17;;;;;;;;;2.00;2.00;;;;;-146.67;100.00;57155.34;5084620;28;8927;-76
2023/08/20 08:04:43;;;;;;;;;1.00;1.00;;;;;-146.67;100.00;57155.34;5084507;28;11492;-76
2023/08/20 08:07:11;;;;;;;;;2.00;2.00;;;;;-146.67;100.00;57155.34;5084316;28;9573;-76
2023/08/20 08:09:37;;;;;;;;;2.00;2.00;;;;;-146.67;100.00;57155.34;5084423;28;8788;-75
2023/08/20 08:12:04;;;;;;;;;5.00;3.00;;;;;-146.67;100.00;57155.34;5084170;28;9320;-76
2023/08/20 08:14:30;;;;;;;;;4.33;4.00;;;;;-146.67;100.00;57155.34;5083876;28;8698;-76
2023/08/20 08:16:55;;;;;;;;;1.67;1.33;;;;;-146.67;100.00;57155.34;5084295;28;9486;-75
2023/08/20 08:19:21;;;;;;;;;4.67;3.67;;;;;-146.67;100.00;57155.34;5083981;28;8788;-76
2023/08/20 08:21:47;;;;;;;;;2.00;2.00;;;;;-146.67;100.00;57155.34;5066075;28;8813;-75
2023/08/20 08:24:13;;;;;;;;;3.67;3.67;;;;;-146.67;100.00;57155.34;5084204;28;8769;-76
2023/08/20 08:26:39;;;;;;;;;3.67;2.33;;;;;-146.67;100.00;57155.34;5065979;28;10174;-76
2023/08/20 08:29:06;;;;;;;;;3.67;2.67;;;;;-146.67;100.00;57155.34;5065491;28;9345;-76
2023/08/20 08:31:32;;;;;;;;;3.00;3.00;;;;;-146.67;100.00;57155.34;5083886;28;9725;-76
2023/08/20 08:33:57;;;;;;;;;2.00;2.00;;;;;-146.67;100.00;57155.34;5082907;28;9327;-76
2023/08/20 08:36:24;;;;;;;;;2.67;2.33;;;;;-146.67;100.00;57155.34;5082525;28;10320;-76
2023/08/20 08:38:50;;;;;;;;;5.00;4.00;;;;;-146.67;100.00;57155.34;5065178;28;8774;-75
2023/08/20 08:41:16;;;;;;;;;5.00;2.67;;;;;-146.67;100.00;57155.34;5083273;28;9279;-75
2023/08/20 08:43:41;;;;;;;;;4.00;4.00;;;;;-146.67;100.00;57155.34;5081807;28;9494;-76
2023/08/20 08:46:12;;;;;;;;;3.00;2.67;;;;;-146.67;100.00;57155.34;5065802;28;9834;-76
2023/08/20 08:48:41;;;;;;;;;6.67;4.00;;;;;-146.67;100.00;57155.34;5065586;28;8793;-76
2023/08/20 08:51:06;;;;;;;;;5.33;5.00;;;;;-146.67;100.00;57155.34;5083252;28;9472;-76
2023/08/20 08:53:32;;;;;;;;;4.67;3.00;;;;;-146.67;100.00;57155.34;5070288;28;9447;-76
2023/08/20 08:55:59;;;;;;;;;5.33;3.67;;;;;-146.67;100.00;57155.34;5063759;28;8771;-76
2023/08/20 08:58:25;;;;;;;;;2.33;2.33;;;;;-146.67;100.00;57155.34;5062943;28;9243;-76
2023/08/20 09:00:50;;;;;;;;;3.00;3.00;;;;;-146.67;100.00;57155.34;5063367;28;9092;-76
2023/08/20 09:03:16;;;;;;;;;4.00;3.00;;;;;-146.67;100.00;57155.34;5063311;28;10637;-76
2023/08/20 09:05:55;;;;;;;;;5.00;3.67;;;;;-146.67;100.00;57155.34;5063233;28;8798;-75
2023/08/20 09:08:28;;;;;;;;;3.67;3.67;;;;;-146.67;100.00;57155.34;5078897;28;8764;-75
2023/08/20 09:10:55;;;;;;;;;3.67;3.67;;;;;-146.67;100.00;57155.34;5044779;28;9260;-75
2023/08/20 09:13:35;;;;;;;;;5.67;3.67;;;;;-146.67;100.00;57155.34;5062867;28;9248;-75
2023/08/20 09:16:07;;;;;;;;;3.67;3.67;;;;;-146.67;100.00;57155.34;5063351;28;10423;-75
2023/08/20 09:18:37;;;;;;;;;5.00;4.67;;;;;-146.67;100.00;57155.34;5063349;28;9259;-75
2023/08/20 09:21:06;;;;;;;;;5.33;5.33;;;;;-146.67;100.00;57155.34;5062698;28;9063;-75
2023/08/20 09:23:31;;;;;;;;;4.67;3.67;;;;;-146.67;100.00;57155.34;5063216;28;9251;-75
2023/08/20 09:25:57;;;;;;;;;5.67;4.67;;;;;-146.67;100.00;57155.34;5044640;28;10117;-75
2023/08/20 09:28:24;;;;;;;;;4.67;4.67;;;;;-146.67;100.00;57155.34;5062606;28;8760;-75
2023/08/20 09:30:57;;;;;;;;;2.67;2.67;;;;;-146.67;100.00;57155.34;5045061;28;9368;-75
2023/08/20 09:33:22;;;;;;;;;7.00;3.67;;;;;-146.67;100.00;57155.34;5063148;28;8759;-75
2023/08/20 09:35:53;;;;;;;;;4.00;3.00;;;;;-146.67;100.00;57155.34;5062810;28;9286;-75
2023/08/20 09:38:22;;;;;;;;;3.67;2.67;;;;;-146.67;100.00;57155.34;5062910;28;8944;-75
2023/08/20 09:40:50;;;;;;;;;4.67;4.67;;;;;-146.67;100.00;57155.34;5060956;28;9040;-75
2023/08/20 09:43:16;;;;;;;;;4.00;3.00;;;;;-146.67;100.00;57155.34;5062428;28;9068;-75
2023/08/20 09:45:43;;;;;;;;;9.33;4.00;;;;;-146.67;100.00;57155.34;5062700;28;9160;-75
2023/08/20 09:48:11;;;;;;;;;3.00;2.00;;;;;-146.67;100.00;57155.34;5062492;28;9007;-75
2023/08/20 09:50:39;;;;;;;;;4.00;2.00;;;;;-146.67;100.00;57155.34;5044190;28;8924;-75
2023/08/20 09:53:17;;;;;;;;;4.33;4.33;;;;;-146.67;100.00;57155.34;5062219;28;9872;-75
2023/08/20 09:55:45;;;;;;;;;5.67;3.00;;;;;-146.67;100.00;57155.34;5062280;28;9127;-75
2023/08/20 09:58:11;;;;;;;;;3.33;2.33;;;;;-146.67;100.00;57155.34;5044371;28;9086;-75
2023/08/20 10:00:37;;;;;;;;;4.00;4.00;;;;;-146.67;100.00;57155.34;5044714;28;8924;-75
2023/08/20 10:03:03;;;;;;;;;2.00;2.00;;;;;-146.67;100.00;57155.34;5062243;28;8891;-75
2023/08/20 10:05:29;;;;;;;;;2.67;2.00;;;;;-146.67;100.00;57155.34;5062609;28;9245;-75
2023/08/20 10:07:55;;;;;;;;;2.50;2.50;;;;;-146.67;100.00;57155.34;5062270;28;8814;-75
2023/08/20 10:10:21;;;;;;;;;3.33;3.00;;;;;-146.67;100.00;57155.34;5062242;28;8982;-75
2023/08/20 10:12:48;;;;;;;;;5.33;4.00;;;;;-146.67;100.00;57155.34;5043852;28;9577;-75
2023/08/20 10:15:14;;;;;;;;;4.33;4.33;;;;;-146.67;100.00;57155.34;5062653;28;8768;-75
2023/08/20 10:17:43;;;;;;;;;2.00;2.00;;;;;-146.67;100.00;57155.34;5062456;28;8943;-74
2023/08/20 10:20:12;;;;;;;;;3.00;3.00;;;;;-146.67;100.00;57155.34;5061717;28;9931;-75
2023/08/20 10:22:39;;;;;;;;;4.33;3.33;;;;;-146.67;100.00;57155.34;5054469;28;8886;-75
2023/08/20 10:25:09;;;;;;;;;5.00;3.75;;;;;-146.67;100.00;57155.34;5061927;28;9201;-75
2023/08/20 10:27:40;;;;;;;;;2.00;2.00;;;;;-146.67;100.00;57155.34;5061951;28;8794;-75
2023/08/20 10:30:16;;;;;;;;;2.00;2.00;;;;;-146.67;100.00;57155.34;5062335;28;8924;-75
2023/08/20 10:32:51;;;;;;;;;3.00;3.00;;;;;-146.67;100.00;57155.34;5062273;28;9863;-75
2023/08/20 10:35:25;;;;;;;;;3.67;3.00;;;;;-146.67;100.00;57155.34;5044097;28;10038;-75
2023/08/20 10:38:11;;;;;;;;;4.67;3.00;;;;;-146.67;100.00;57155.34;5061808;28;9053;-75
2023/08/20 10:40:57;;;;;;;;;4.00;2.00;;;;;-146.67;100.00;57155.34;5062134;28;9036;-75
2023/08/20 10:43:36;;;;;;;;;2.33;2.33;;;;;-146.67;100.00;57155.34;5061810;28;9001;-75
2023/08/20 10:46:18;;;;;;;;;6.33;2.00;;;;;-146.67;100.00;57155.34;5062110;28;9239;-75
2023/08/20 10:48:58;;;;;;;;;4.00;4.00;;;;;-146.67;100.00;57155.34;5043995;28;8978;-75
2023/08/20 10:51:37;;;;;;;;;2.00;2.00;;;;;-146.67;100.00;57155.34;5061552;28;9004;-75
2023/08/20 10:54:03;;;;;;;;;3.00;3.00;;;;;-146.67;100.00;57155.34;5061411;28;9078;-75
2023/08/20 10:56:54;;;;;;;;;4.33;3.00;;;;;-146.67;100.00;57155.34;5061936;28;9195;-75
2023/08/20 10:59:27;;;;;;;;;5.33;3.00;;;;;-146.67;100.00;57155.34;5061600;28;8981;-75
2023/08/20 11:01:55;;;;;;;;;3.33;3.33;;;;;-146.67;100.00;57155.34;5061721;28;8854;-75
2023/08/20 11:04:22;;;;;;;;;3.00;3.00;;;;;-146.67;100.00;57155.34;5065142;28;9112;-75
2023/08/20 11:06:56;;;;;;;;;3.00;2.00;;;;;-146.67;100.00;57155.34;5064974;28;9113;-75
2023/08/20 11:09:23;;;;;;;;;2.33;2.33;;;;;-146.67;100.00;57155.34;5047363;28;8844;-75
2023/08/20 11:11:48;;;;;;;;;2.00;2.00;;;;;-146.67;100.00;57155.34;5047010;28;9005;-75
2023/08/20 11:14:15;;;;;;;;;4.67;3.00;;;;;-146.67;100.00;57155.34;5046307;28;8980;-75
2023/08/20 11:16:43;;;;;;;;;2.67;2.67;;;;;-146.67;100.00;57155.34;5047297;28;10043;-75